sensor_id;sensor_type;location;lat;lon;timestamp;P1;durP1;ratioP1;P2;durP2;ratioP2
55573;SDS011;57533;39.460;-0.372;2022-10-16T00:01:34;19.25;;;14.13;;
55573;SDS011;57533;39.460;-0.372;2022-10-16T00:04:00;17.30;;;12.73;;
55573;SDS011;57533;39.460;-0.372;2022-10-16T00:06:27;17.33;;;12.60;;
55573;SDS011;57533;39.460;-0.372;2022-10-16T00:08:53;18.10;;;12.10;;
55573;SDS011;57533;39.460;-0.372;2022-10-16T00:13:46;15.00;;;11.05;;
55573;SDS011;57533;39.460;-0.372;2022-10-16T00:16:12;21.48;;;12.05;;
55573;SDS011;57533;39.460;-0.372;2022-10-16T00:18:38;17.38;;;11.32;;
55573;SDS011;57533;39.460;-0.372;2022-10-16T00:21:08;14.20;;;11.35;;
55573;SDS011;57533;39.460;-0.372;2022-10-16T00:23:33;15.75;;;12.15;;
55573;SDS011;57533;39.460;-0.372;2022-10-16T00:25:59;16.33;;;11.82;;
55573;SDS011;57533;39.460;-0.372;2022-10-16T00:28:25;17.85;;;11.27;;
55573;SDS011;57533;39.460;-0.372;2022-10-16T00:30:51;18.92;;;12.70;;
55573;SDS011;57533;39.460;-0.372;2022-10-16T00:33:17;17.27;;;11.80;;
55573;SDS011;57533;39.460;-0.372;2022-10-16T00:35:42;24.73;;;12.68;;
55573;SDS011;57533;39.460;-0.372;2022-10-16T00:38:07;19.25;;;13.48;;
55573;SDS011;57533;39.460;-0.372;2022-10-16T00:40:33;21.77;;;14.45;;
55573;SDS011;57533;39.460;-0.372;2022-10-16T00:42:58;18.88;;;13.38;;
55573;SDS011;57533;39.460;-0.372;2022-10-16T00:45:23;20.35;;;13.40;;
55573;SDS011;57533;39.460;-0.372;2022-10-16T00:47:49;23.63;;;13.77;;
55573;SDS011;57533;39.460;-0.372;2022-10-16T00:50:33;18.58;;;12.80;;
55573;SDS011;57533;39.460;-0.372;2022-10-16T00:52:59;19.42;;;14.18;;
55573;SDS011;57533;39.460;-0.372;2022-10-16T00:55:25;20.10;;;13.32;;
55573;SDS011;57533;39.460;-0.372;2022-10-16T00:57:52;17.70;;;12.73;;
55573;SDS011;57533;39.460;-0.372;2022-10-16T01:00:20;17.35;;;12.20;;
55573;SDS011;57533;39.460;-0.372;2022-10-16T01:02:54;16.30;;;12.07;;
55573;SDS011;57533;39.460;-0.372;2022-10-16T01:05:21;18.00;;;12.75;;
55573;SDS011;57533;39.460;-0.372;2022-10-16T01:15:10;18.35;;;12.35;;
55573;SDS011;57533;39.460;-0.372;2022-10-16T01:22:36;16.75;;;12.57;;
55573;SDS011;57533;39.460;-0.372;2022-10-16T01:25:02;16.77;;;11.88;;
55573;SDS011;57533;39.460;-0.372;2022-10-16T01:27:30;23.65;;;13.65;;
55573;SDS011;57533;39.460;-0.372;2022-10-16T01:32:39;15.30;;;11.88;;
55573;SDS011;57533;39.460;-0.372;2022-10-16T01:35:09;19.40;;;12.68;;
55573;SDS011;57533;39.460;-0.372;2022-10-16T01:40:03;19.67;;;12.90;;
55573;SDS011;57533;39.460;-0.372;2022-10-16T01:42:39;21.80;;;13.90;;
55573;SDS011;57533;39.460;-0.372;2022-10-16T01:45:05;20.77;;;13.10;;
55573;SDS011;57533;39.460;-0.372;2022-10-16T01:47:32;19.38;;;12.98;;
55573;SDS011;57533;39.460;-0.372;2022-10-16T01:50:00;16.63;;;13.32;;
55573;SDS011;57533;39.460;-0.372;2022-10-16T01:52:26;17.05;;;12.82;;
55573;SDS011;57533;39.460;-0.372;2022-10-16T01:54:54;17.67;;;12.73;;
55573;SDS011;57533;39.460;-0.372;2022-10-16T01:57:20;16.90;;;12.63;;
55573;SDS011;57533;39.460;-0.372;2022-10-16T01:59:47;17.60;;;13.20;;
55573;SDS011;57533;39.460;-0.372;2022-10-16T02:02:14;14.70;;;11.60;;
55573;SDS011;57533;39.460;-0.372;2022-10-16T02:04:42;16.10;;;12.45;;
55573;SDS011;57533;39.460;-0.372;2022-10-16T02:07:09;21.52;;;12.65;;
55573;SDS011;57533;39.460;-0.372;2022-10-16T02:09:35;17.98;;;12.57;;
55573;SDS011;57533;39.460;-0.372;2022-10-16T02:12:03;17.15;;;13.02;;
55573;SDS011;57533;39.460;-0.372;2022-10-16T02:14:31;20.50;;;13.43;;
55573;SDS011;57533;39.460;-0.372;2022-10-16T02:16:57;23.33;;;14.43;;
55573;SDS011;57533;39.460;-0.372;2022-10-16T02:19:22;19.95;;;13.80;;
55573;SDS011;57533;39.460;-0.372;2022-10-16T02:21:54;21.10;;;15.18;;
55573;SDS011;57533;39.460;-0.372;2022-10-16T02:26:49;24.30;;;15.13;;
55573;SDS011;57533;39.460;-0.372;2022-10-16T02:29:20;21.85;;;15.52;;
55573;SDS011;57533;39.460;-0.372;2022-10-16T02:31:48;20.88;;;15.50;;
55573;SDS011;57533;39.460;-0.372;2022-10-16T02:34:14;19.83;;;15.20;;
55573;SDS011;57533;39.460;-0.372;2022-10-16T02:36:41;23.77;;;15.15;;
55573;SDS011;57533;39.460;-0.372;2022-10-16T02:39:07;23.63;;;16.20;;
55573;SDS011;57533;39.460;-0.372;2022-10-16T02:41:33;24.25;;;15.57;;
55573;SDS011;57533;39.460;-0.372;2022-10-16T02:43:58;20.92;;;14.52;;
55573;SDS011;57533;39.460;-0.372;2022-10-16T02:46:23;22.42;;;14.90;;
55573;SDS011;57533;39.460;-0.372;2022-10-16T02:48:49;23.23;;;15.65;;
55573;SDS011;57533;39.460;-0.372;2022-10-16T02:51:14;24.38;;;14.93;;
55573;SDS011;57533;39.460;-0.372;2022-10-16T02:53:39;21.58;;;15.40;;
55573;SDS011;57533;39.460;-0.372;2022-10-16T02:56:04;21.58;;;15.10;;
55573;SDS011;57533;39.460;-0.372;2022-10-16T02:58:30;29.75;;;16.83;;
55573;SDS011;57533;39.460;-0.372;2022-10-16T03:00:55;24.40;;;15.82;;
55573;SDS011;57533;39.460;-0.372;2022-10-16T03:03:21;22.90;;;16.42;;
55573;SDS011;57533;39.460;-0.372;2022-10-16T03:05:46;21.83;;;15.80;;
55573;SDS011;57533;39.460;-0.372;2022-10-16T03:08:12;23.17;;;15.52;;
55573;SDS011;57533;39.460;-0.372;2022-10-16T03:10:37;26.05;;;16.15;;
55573;SDS011;57533;39.460;-0.372;2022-10-16T03:13:02;23.98;;;16.08;;
55573;SDS011;57533;39.460;-0.372;2022-10-16T03:15:28;26.13;;;15.98;;
55573;SDS011;57533;39.460;-0.372;2022-10-16T03:17:54;23.17;;;15.65;;
55573;SDS011;57533;39.460;-0.372;2022-10-16T03:20:19;26.73;;;16.25;;
55573;SDS011;57533;39.460;-0.372;2022-10-16T03:22:44;23.02;;;15.93;;
55573;SDS011;57533;39.460;-0.372;2022-10-16T03:25:10;23.35;;;15.05;;
55573;SDS011;57533;39.460;-0.372;2022-10-16T03:27:35;24.15;;;15.70;;
55573;SDS011;57533;39.460;-0.372;2022-10-16T03:30:00;22.98;;;14.80;;
55573;SDS011;57533;39.460;-0.372;2022-10-16T03:32:25;18.42;;;14.27;;
55573;SDS011;57533;39.460;-0.372;2022-10-16T03:34:51;23.25;;;13.95;;
55573;SDS011;57533;39.460;-0.372;2022-10-16T03:37:18;16.65;;;13.32;;
55573;SDS011;57533;39.460;-0.372;2022-10-16T03:39:43;20.77;;;12.57;;
55573;SDS011;57533;39.460;-0.372;2022-10-16T03:42:08;16.17;;;12.82;;
55573;SDS011;57533;39.460;-0.372;2022-10-16T03:44:34;14.68;;;11.38;;
55573;SDS011;57533;39.460;-0.372;2022-10-16T03:46:59;17.40;;;11.80;;
55573;SDS011;57533;39.460;-0.372;2022-10-16T03:49:24;16.75;;;11.52;;
55573;SDS011;57533;39.460;-0.372;2022-10-16T03:51:50;20.52;;;12.55;;
55573;SDS011;57533;39.460;-0.372;2022-10-16T03:54:15;15.05;;;12.23;;
55573;SDS011;57533;39.460;-0.372;2022-10-16T03:56:40;20.35;;;12.18;;
55573;SDS011;57533;39.460;-0.372;2022-10-16T03:59:05;15.05;;;10.80;;
55573;SDS011;57533;39.460;-0.372;2022-10-16T04:01:31;16.55;;;11.52;;
55573;SDS011;57533;39.460;-0.372;2022-10-16T04:03:56;19.92;;;13.63;;
55573;SDS011;57533;39.460;-0.372;2022-10-16T04:06:21;15.20;;;11.00;;
55573;SDS011;57533;39.460;-0.372;2022-10-16T04:08:47;20.05;;;11.68;;
55573;SDS011;57533;39.460;-0.372;2022-10-16T04:11:13;16.40;;;10.90;;
55573;SDS011;57533;39.460;-0.372;2022-10-16T04:13:38;17.88;;;10.57;;
55573;SDS011;57533;39.460;-0.372;2022-10-16T04:16:04;16.58;;;10.95;;
55573;SDS011;57533;39.460;-0.372;2022-10-16T04:18:29;14.85;;;10.27;;
55573;SDS011;57533;39.460;-0.372;2022-10-16T04:20:54;12.68;;;9.15;;
55573;SDS011;57533;39.460;-0.372;2022-10-16T04:23:20;15.75;;;9.35;;
55573;SDS011;57533;39.460;-0.372;2022-10-16T04:25:45;12.57;;;7.43;;
55573;SDS011;57533;39.460;-0.372;2022-10-16T04:28:10;10.10;;;7.75;;
55573;SDS011;57533;39.460;-0.372;2022-10-16T04:30:37;11.93;;;7.63;;
55573;SDS011;57533;39.460;-0.372;2022-10-16T04:33:02;13.32;;;7.70;;
55573;SDS011;57533;39.460;-0.372;2022-10-16T04:35:28;12.70;;;7.57;;
55573;SDS011;57533;39.460;-0.372;2022-10-16T04:37:53;13.02;;;7.53;;
55573;SDS011;57533;39.460;-0.372;2022-10-16T04:40:18;11.10;;;7.43;;
55573;SDS011;57533;39.460;-0.372;2022-10-16T04:42:44;11.60;;;6.90;;
55573;SDS011;57533;39.460;-0.372;2022-10-16T04:45:09;10.20;;;7.15;;
55573;SDS011;57533;39.460;-0.372;2022-10-16T04:47:34;13.85;;;6.97;;
55573;SDS011;57533;39.460;-0.372;2022-10-16T04:50:00;10.98;;;6.45;;
55573;SDS011;57533;39.460;-0.372;2022-10-16T04:52:27;12.90;;;6.50;;
55573;SDS011;57533;39.460;-0.372;2022-10-16T04:54:52;10.43;;;5.53;;
55573;SDS011;57533;39.460;-0.372;2022-10-16T04:57:19;12.85;;;6.13;;
55573;SDS011;57533;39.460;-0.372;2022-10-16T04:59:44;11.23;;;6.03;;
55573;SDS011;57533;39.460;-0.372;2022-10-16T05:02:09;9.48;;;5.60;;
55573;SDS011;57533;39.460;-0.372;2022-10-16T05:04:34;9.48;;;5.10;;
55573;SDS011;57533;39.460;-0.372;2022-10-16T05:07:00;8.32;;;4.63;;
55573;SDS011;57533;39.460;-0.372;2022-10-16T05:09:25;14.20;;;3.92;;
55573;SDS011;57533;39.460;-0.372;2022-10-16T05:11:50;7.95;;;3.95;;
55573;SDS011;57533;39.460;-0.372;2022-10-16T05:14:16;9.60;;;4.55;;
55573;SDS011;57533;39.460;-0.372;2022-10-16T05:16:41;9.68;;;3.80;;
55573;SDS011;57533;39.460;-0.372;2022-10-16T05:19:06;11.10;;;4.55;;
55573;SDS011;57533;39.460;-0.372;2022-10-16T05:21:32;7.00;;;3.60;;
55573;SDS011;57533;39.460;-0.372;2022-10-16T05:23:57;6.25;;;3.85;;
55573;SDS011;57533;39.460;-0.372;2022-10-16T05:26:22;10.52;;;6.22;;
55573;SDS011;57533;39.460;-0.372;2022-10-16T05:28:48;4.85;;;3.75;;
55573;SDS011;57533;39.460;-0.372;2022-10-16T05:31:14;9.15;;;5.25;;
55573;SDS011;57533;39.460;-0.372;2022-10-16T05:33:39;5.32;;;3.40;;
55573;SDS011;57533;39.460;-0.372;2022-10-16T05:36:05;4.93;;;3.55;;
55573;SDS011;57533;39.460;-0.372;2022-10-16T05:38:32;8.30;;;3.60;;
55573;SDS011;57533;39.460;-0.372;2022-10-16T05:40:57;10.13;;;4.20;;
55573;SDS011;57533;39.460;-0.372;2022-10-16T05:43:23;10.52;;;3.78;;
55573;SDS011;57533;39.460;-0.372;2022-10-16T05:45:57;10.65;;;3.90;;
55573;SDS011;57533;39.460;-0.372;2022-10-16T05:48:23;7.05;;;3.80;;
55573;SDS011;57533;39.460;-0.372;2022-10-16T05:50:55;7.20;;;4.72;;
55573;SDS011;57533;39.460;-0.372;2022-10-16T05:53:21;10.10;;;4.47;;
55573;SDS011;57533;39.460;-0.372;2022-10-16T05:55:53;9.63;;;4.72;;
55573;SDS011;57533;39.460;-0.372;2022-10-16T05:58:19;7.75;;;4.28;;
55573;SDS011;57533;39.460;-0.372;2022-10-16T06:00:44;7.65;;;4.30;;
55573;SDS011;57533;39.460;-0.372;2022-10-16T06:03:09;5.70;;;4.40;;
55573;SDS011;57533;39.460;-0.372;2022-10-16T06:05:35;12.70;;;5.22;;
55573;SDS011;57533;39.460;-0.372;2022-10-16T06:08:00;18.98;;;5.22;;
55573;SDS011;57533;39.460;-0.372;2022-10-16T06:10:25;9.90;;;5.10;;
55573;SDS011;57533;39.460;-0.372;2022-10-16T06:12:50;12.48;;;5.35;;
55573;SDS011;57533;39.460;-0.372;2022-10-16T06:15:16;5.60;;;4.55;;
55573;SDS011;57533;39.460;-0.372;2022-10-16T06:17:41;7.80;;;5.03;;
55573;SDS011;57533;39.460;-0.372;2022-10-16T06:20:06;8.02;;;4.68;;
55573;SDS011;57533;39.460;-0.372;2022-10-16T06:22:32;10.38;;;4.70;;
55573;SDS011;57533;39.460;-0.372;2022-10-16T06:24:57;10.95;;;4.85;;
55573;SDS011;57533;39.460;-0.372;2022-10-16T06:27:22;8.15;;;4.97;;
55573;SDS011;57533;39.460;-0.372;2022-10-16T06:29:48;7.70;;;4.68;;
55573;SDS011;57533;39.460;-0.372;2022-10-16T06:32:13;14.88;;;5.82;;
55573;SDS011;57533;39.460;-0.372;2022-10-16T06:34:38;6.43;;;5.32;;
55573;SDS011;57533;39.460;-0.372;2022-10-16T06:37:05;11.15;;;5.78;;
55573;SDS011;57533;39.460;-0.372;2022-10-16T06:39:31;11.40;;;5.65;;
55573;SDS011;57533;39.460;-0.372;2022-10-16T06:41:56;12.10;;;5.68;;
55573;SDS011;57533;39.460;-0.372;2022-10-16T06:44:21;9.45;;;5.55;;
55573;SDS011;57533;39.460;-0.372;2022-10-16T06:46:47;12.60;;;5.70;;
55573;SDS011;57533;39.460;-0.372;2022-10-16T06:49:12;9.32;;;6.30;;
55573;SDS011;57533;39.460;-0.372;2022-10-16T06:51:38;10.52;;;6.50;;
55573;SDS011;57533;39.460;-0.372;2022-10-16T06:54:06;12.88;;;6.05;;
55573;SDS011;57533;39.460;-0.372;2022-10-16T06:56:31;9.38;;;6.22;;
55573;SDS011;57533;39.460;-0.372;2022-10-16T06:58:57;14.38;;;6.07;;
55573;SDS011;57533;39.460;-0.372;2022-10-16T07:01:23;12.00;;;6.63;;
55573;SDS011;57533;39.460;-0.372;2022-10-16T07:03:49;17.35;;;6.93;;
55573;SDS011;57533;39.460;-0.372;2022-10-16T07:06:16;8.30;;;6.22;;
55573;SDS011;57533;39.460;-0.372;2022-10-16T07:08:42;12.57;;;7.20;;
55573;SDS011;57533;39.460;-0.372;2022-10-16T07:11:08;10.85;;;6.97;;
55573;SDS011;57533;39.460;-0.372;2022-10-16T07:13:37;14.00;;;6.80;;
55573;SDS011;57533;39.460;-0.372;2022-10-16T07:16:13;14.82;;;6.43;;
55573;SDS011;57533;39.460;-0.372;2022-10-16T07:18:39;9.80;;;6.75;;
55573;SDS011;57533;39.460;-0.372;2022-10-16T07:21:09;10.98;;;6.50;;
55573;SDS011;57533;39.460;-0.372;2022-10-16T07:23:35;14.23;;;7.25;;
55573;SDS011;57533;39.460;-0.372;2022-10-16T07:26:00;16.30;;;8.27;;
55573;SDS011;57533;39.460;-0.372;2022-10-16T07:28:26;14.15;;;7.95;;
55573;SDS011;57533;39.460;-0.372;2022-10-16T07:30:52;10.68;;;5.88;;
55573;SDS011;57533;39.460;-0.372;2022-10-16T07:33:17;14.40;;;6.40;;
55573;SDS011;57533;39.460;-0.372;2022-10-16T07:35:49;11.13;;;6.60;;
55573;SDS011;57533;39.460;-0.372;2022-10-16T07:38:15;9.02;;;6.38;;
55573;SDS011;57533;39.460;-0.372;2022-10-16T07:40:40;14.80;;;8.10;;
55573;SDS011;57533;39.460;-0.372;2022-10-16T07:43:05;9.68;;;7.40;;
55573;SDS011;57533;39.460;-0.372;2022-10-16T07:45:30;15.35;;;7.13;;
55573;SDS011;57533;39.460;-0.372;2022-10-16T07:47:56;14.90;;;7.72;;
55573;SDS011;57533;39.460;-0.372;2022-10-16T07:50:21;17.33;;;7.18;;
55573;SDS011;57533;39.460;-0.372;2022-10-16T07:52:46;17.05;;;7.15;;
55573;SDS011;57533;39.460;-0.372;2022-10-16T07:55:12;13.05;;;7.25;;
55573;SDS011;57533;39.460;-0.372;2022-10-16T07:57:37;10.07;;;6.97;;
55573;SDS011;57533;39.460;-0.372;2022-10-16T08:00:02;9.65;;;7.50;;
55573;SDS011;57533;39.460;-0.372;2022-10-16T08:02:28;13.60;;;6.07;;
55573;SDS011;57533;39.460;-0.372;2022-10-16T08:04:53;12.90;;;7.55;;
55573;SDS011;57533;39.460;-0.372;2022-10-16T08:07:18;9.93;;;6.15;;
55573;SDS011;57533;39.460;-0.372;2022-10-16T08:09:44;11.02;;;6.07;;
55573;SDS011;57533;39.460;-0.372;2022-10-16T08:12:09;14.73;;;7.15;;
55573;SDS011;57533;39.460;-0.372;2022-10-16T08:14:35;13.90;;;6.50;;
55573;SDS011;57533;39.460;-0.372;2022-10-16T08:17:01;14.65;;;7.60;;
55573;SDS011;57533;39.460;-0.372;2022-10-16T08:19:27;10.60;;;7.25;;
55573;SDS011;57533;39.460;-0.372;2022-10-16T08:21:52;15.02;;;7.15;;
55573;SDS011;57533;39.460;-0.372;2022-10-16T08:24:18;13.40;;;7.00;;
55573;SDS011;57533;39.460;-0.372;2022-10-16T08:26:43;16.63;;;7.28;;
55573;SDS011;57533;39.460;-0.372;2022-10-16T08:29:08;12.95;;;6.78;;
55573;SDS011;57533;39.460;-0.372;2022-10-16T08:31:34;15.52;;;7.70;;
55573;SDS011;57533;39.460;-0.372;2022-10-16T08:33:59;12.50;;;7.10;;
55573;SDS011;57533;39.460;-0.372;2022-10-16T08:36:25;11.73;;;8.05;;
55573;SDS011;57533;39.460;-0.372;2022-10-16T08:38:50;13.50;;;8.45;;
55573;SDS011;57533;39.460;-0.372;2022-10-16T08:46:29;18.35;;;9.00;;
55573;SDS011;57533;39.460;-0.372;2022-10-16T08:48:58;12.27;;;8.55;;
55573;SDS011;57533;39.460;-0.372;2022-10-16T08:53:52;18.58;;;9.02;;
55573;SDS011;57533;39.460;-0.372;2022-10-16T08:56:18;17.73;;;9.05;;
55573;SDS011;57533;39.460;-0.372;2022-10-16T08:58:43;19.15;;;9.90;;
55573;SDS011;57533;39.460;-0.372;2022-10-16T09:01:13;13.73;;;9.13;;
55573;SDS011;57533;39.460;-0.372;2022-10-16T09:17:03;15.82;;;10.43;;
55573;SDS011;57533;39.460;-0.372;2022-10-16T09:19:31;15.55;;;9.73;;
55573;SDS011;57533;39.460;-0.372;2022-10-16T09:21:59;15.32;;;10.32;;
55573;SDS011;57533;39.460;-0.372;2022-10-16T09:24:26;16.17;;;10.88;;
55573;SDS011;57533;39.460;-0.372;2022-10-16T09:26:52;19.70;;;10.43;;
55573;SDS011;57533;39.460;-0.372;2022-10-16T09:29:18;11.48;;;9.10;;
55573;SDS011;57533;39.460;-0.372;2022-10-16T09:31:50;17.42;;;9.90;;
55573;SDS011;57533;39.460;-0.372;2022-10-16T09:36:50;15.13;;;8.30;;
55573;SDS011;57533;39.460;-0.372;2022-10-16T09:39:16;17.33;;;9.20;;
55573;SDS011;57533;39.460;-0.372;2022-10-16T09:41:42;13.93;;;9.77;;
55573;SDS011;57533;39.460;-0.372;2022-10-16T09:46:49;14.27;;;10.02;;
55573;SDS011;57533;39.460;-0.372;2022-10-16T09:49:21;14.32;;;9.65;;
55573;SDS011;57533;39.460;-0.372;2022-10-16T09:51:47;13.80;;;10.43;;
55573;SDS011;57533;39.460;-0.372;2022-10-16T09:54:14;15.48;;;10.18;;
55573;SDS011;57533;39.460;-0.372;2022-10-16T09:56:39;17.35;;;10.15;;
55573;SDS011;57533;39.460;-0.372;2022-10-16T09:59:12;16.23;;;9.85;;
55573;SDS011;57533;39.460;-0.372;2022-10-16T10:01:41;16.02;;;9.38;;
55573;SDS011;57533;39.460;-0.372;2022-10-16T10:04:08;16.27;;;11.80;;
55573;SDS011;57533;39.460;-0.372;2022-10-16T10:06:37;17.25;;;9.30;;
55573;SDS011;57533;39.460;-0.372;2022-10-16T10:09:16;15.75;;;9.45;;
55573;SDS011;57533;39.460;-0.372;2022-10-16T10:11:46;15.60;;;9.20;;
55573;SDS011;57533;39.460;-0.372;2022-10-16T10:16:44;12.68;;;9.88;;
55573;SDS011;57533;39.460;-0.372;2022-10-16T10:19:19;20.08;;;9.13;;
55573;SDS011;57533;39.460;-0.372;2022-10-16T10:21:45;18.77;;;11.15;;
55573;SDS011;57533;39.460;-0.372;2022-10-16T10:24:11;15.02;;;10.05;;
55573;SDS011;57533;39.460;-0.372;2022-10-16T10:26:37;18.17;;;11.30;;
55573;SDS011;57533;39.460;-0.372;2022-10-16T10:31:30;21.98;;;12.30;;
55573;SDS011;57533;39.460;-0.372;2022-10-16T10:36:43;20.90;;;10.93;;
55573;SDS011;57533;39.460;-0.372;2022-10-16T10:39:17;15.75;;;10.55;;
55573;SDS011;57533;39.460;-0.372;2022-10-16T10:44:37;14.75;;;10.90;;
55573;SDS011;57533;39.460;-0.372;2022-10-16T10:47:11;19.17;;;9.43;;
55573;SDS011;57533;39.460;-0.372;2022-10-16T10:49:46;14.27;;;9.23;;
55573;SDS011;57533;39.460;-0.372;2022-10-16T10:57:28;10.73;;;8.98;;
55573;SDS011;57533;39.460;-0.372;2022-10-16T11:07:32;14.82;;;10.88;;
55573;SDS011;57533;39.460;-0.372;2022-10-16T11:09:56;16.00;;;10.55;;
55573;SDS011;57533;39.460;-0.372;2022-10-16T11:12:37;12.52;;;10.18;;
55573;SDS011;57533;39.460;-0.372;2022-10-16T11:17:41;12.38;;;9.18;;
55573;SDS011;57533;39.460;-0.372;2022-10-16T11:20:16;19.27;;;10.07;;
55573;SDS011;57533;39.460;-0.372;2022-10-16T11:22:44;13.85;;;10.70;;
55573;SDS011;57533;39.460;-0.372;2022-10-16T11:25:19;12.30;;;9.27;;
55573;SDS011;57533;39.460;-0.372;2022-10-16T11:30:30;12.93;;;8.55;;
55573;SDS011;57533;39.460;-0.372;2022-10-16T11:38:18;12.82;;;7.82;;
55573;SDS011;57533;39.460;-0.372;2022-10-16T11:40:46;12.65;;;7.38;;
55573;SDS011;57533;39.460;-0.372;2022-10-16T11:43:25;11.60;;;7.20;;
55573;SDS011;57533;39.460;-0.372;2022-10-16T11:45:54;14.70;;;7.32;;
55573;SDS011;57533;39.460;-0.372;2022-10-16T11:53:42;10.20;;;7.35;;
55573;SDS011;57533;39.460;-0.372;2022-10-16T11:56:11;13.95;;;8.13;;
55573;SDS011;57533;39.460;-0.372;2022-10-16T12:08:44;11.27;;;8.02;;
55573;SDS011;57533;39.460;-0.372;2022-10-16T12:11:20;13.45;;;8.55;;
55573;SDS011;57533;39.460;-0.372;2022-10-16T12:13:47;9.73;;;7.80;;
55573;SDS011;57533;39.460;-0.372;2022-10-16T12:18:42;10.30;;;7.18;;
55573;SDS011;57533;39.460;-0.372;2022-10-16T12:21:07;15.82;;;8.55;;
55573;SDS011;57533;39.460;-0.372;2022-10-16T12:26:25;9.63;;;8.23;;
55573;SDS011;57533;39.460;-0.372;2022-10-16T12:28:51;11.15;;;7.95;;
55573;SDS011;57533;39.460;-0.372;2022-10-16T12:31:17;9.88;;;7.65;;
55573;SDS011;57533;39.460;-0.372;2022-10-16T12:33:51;10.82;;;7.57;;
55573;SDS011;57533;39.460;-0.372;2022-10-16T12:36:31;13.05;;;6.85;;
55573;SDS011;57533;39.460;-0.372;2022-10-16T12:38:57;8.48;;;6.15;;
55573;SDS011;57533;39.460;-0.372;2022-10-16T12:41:27;13.07;;;7.40;;
55573;SDS011;57533;39.460;-0.372;2022-10-16T12:43:52;14.88;;;8.10;;
55573;SDS011;57533;39.460;-0.372;2022-10-16T12:48:43;10.63;;;7.65;;
55573;SDS011;57533;39.460;-0.372;2022-10-16T12:51:24;11.45;;;7.47;;
55573;SDS011;57533;39.460;-0.372;2022-10-16T12:54:00;13.98;;;7.85;;
55573;SDS011;57533;39.460;-0.372;2022-10-16T12:59:21;9.65;;;7.53;;
55573;SDS011;57533;39.460;-0.372;2022-10-16T13:09:50;8.75;;;5.30;;
55573;SDS011;57533;39.460;-0.372;2022-10-16T13:24:48;10.57;;;5.82;;
55573;SDS011;57533;39.460;-0.372;2022-10-16T13:29:45;5.78;;;4.95;;
55573;SDS011;57533;39.460;-0.372;2022-10-16T13:32:17;7.38;;;4.85;;
55573;SDS011;57533;39.460;-0.372;2022-10-16T13:34:45;9.68;;;5.10;;
55573;SDS011;57533;39.460;-0.372;2022-10-16T13:37:24;7.32;;;4.38;;
55573;SDS011;57533;39.460;-0.372;2022-10-16T13:39:50;10.52;;;5.40;;
55573;SDS011;57533;39.460;-0.372;2022-10-16T13:42:26;11.32;;;5.40;;
55573;SDS011;57533;39.460;-0.372;2022-10-16T13:44:52;6.05;;;4.57;;
55573;SDS011;57533;39.460;-0.372;2022-10-16T13:47:19;8.07;;;4.15;;
55573;SDS011;57533;39.460;-0.372;2022-10-16T13:49:45;5.85;;;4.43;;
55573;SDS011;57533;39.460;-0.372;2022-10-16T13:52:17;4.82;;;4.18;;
55573;SDS011;57533;39.460;-0.372;2022-10-16T13:54:43;5.65;;;4.25;;
55573;SDS011;57533;39.460;-0.372;2022-10-16T13:57:11;8.82;;;4.63;;
55573;SDS011;57533;39.460;-0.372;2022-10-16T13:59:37;9.05;;;4.72;;
55573;SDS011;57533;39.460;-0.372;2022-10-16T14:04:41;6.25;;;4.03;;
55573;SDS011;57533;39.460;-0.372;2022-10-16T14:07:12;7.30;;;4.18;;
55573;SDS011;57533;39.460;-0.372;2022-10-16T14:09:38;7.13;;;4.57;;
55573;SDS011;57533;39.460;-0.372;2022-10-16T14:12:07;6.88;;;4.18;;
55573;SDS011;57533;39.460;-0.372;2022-10-16T14:14:34;6.00;;;4.82;;
55573;SDS011;57533;39.460;-0.372;2022-10-16T14:17:00;12.02;;;4.30;;
55573;SDS011;57533;39.460;-0.372;2022-10-16T14:19:28;10.65;;;3.83;;
55573;SDS011;57533;39.460;-0.372;2022-10-16T14:21:54;10.32;;;4.28;;
55573;SDS011;57533;39.460;-0.372;2022-10-16T14:24:26;10.45;;;3.80;;
55573;SDS011;57533;39.460;-0.372;2022-10-16T14:26:52;6.70;;;4.35;;
55573;SDS011;57533;39.460;-0.372;2022-10-16T14:29:21;6.75;;;4.13;;
55573;SDS011;57533;39.460;-0.372;2022-10-16T14:31:56;4.68;;;3.72;;
55573;SDS011;57533;39.460;-0.372;2022-10-16T14:34:25;4.63;;;3.75;;
55573;SDS011;57533;39.460;-0.372;2022-10-16T14:36:52;7.28;;;3.90;;
55573;SDS011;57533;39.460;-0.372;2022-10-16T14:39:19;6.75;;;4.68;;
55573;SDS011;57533;39.460;-0.372;2022-10-16T14:41:46;11.07;;;4.80;;
55573;SDS011;57533;39.460;-0.372;2022-10-16T14:44:12;11.10;;;4.97;;
55573;SDS011;57533;39.460;-0.372;2022-10-16T14:46:38;8.45;;;4.72;;
55573;SDS011;57533;39.460;-0.372;2022-10-16T14:51:35;10.70;;;4.20;;
55573;SDS011;57533;39.460;-0.372;2022-10-16T14:54:01;6.88;;;4.95;;
55573;SDS011;57533;39.460;-0.372;2022-10-16T14:56:31;11.05;;;5.50;;
55573;SDS011;57533;39.460;-0.372;2022-10-16T14:58:58;12.43;;;5.25;;
55573;SDS011;57533;39.460;-0.372;2022-10-16T15:01:24;9.48;;;5.78;;
55573;SDS011;57533;39.460;-0.372;2022-10-16T15:03:50;9.70;;;6.70;;
55573;SDS011;57533;39.460;-0.372;2022-10-16T15:06:17;12.40;;;7.63;;
55573;SDS011;57533;39.460;-0.372;2022-10-16T15:08:43;13.10;;;7.82;;
55573;SDS011;57533;39.460;-0.372;2022-10-16T15:11:10;11.18;;;8.55;;
55573;SDS011;57533;39.460;-0.372;2022-10-16T15:13:36;10.55;;;8.52;;
55573;SDS011;57533;39.460;-0.372;2022-10-16T15:16:02;17.85;;;8.95;;
55573;SDS011;57533;39.460;-0.372;2022-10-16T15:18:27;17.73;;;7.47;;
55573;SDS011;57533;39.460;-0.372;2022-10-16T15:20:53;9.75;;;7.50;;
55573;SDS011;57533;39.460;-0.372;2022-10-16T15:23:20;11.82;;;8.25;;
55573;SDS011;57533;39.460;-0.372;2022-10-16T15:25:47;11.30;;;9.35;;
55573;SDS011;57533;39.460;-0.372;2022-10-16T15:28:13;15.45;;;10.13;;
55573;SDS011;57533;39.460;-0.372;2022-10-16T15:30:39;11.40;;;8.02;;
55573;SDS011;57533;39.460;-0.372;2022-10-16T15:33:05;12.85;;;7.03;;
55573;SDS011;57533;39.460;-0.372;2022-10-16T15:35:35;33.20;;;6.95;;
55573;SDS011;57533;39.460;-0.372;2022-10-16T15:38:00;13.55;;;8.10;;
55573;SDS011;57533;39.460;-0.372;2022-10-16T15:40:25;14.60;;;6.28;;
55573;SDS011;57533;39.460;-0.372;2022-10-16T15:42:51;12.23;;;6.10;;
55573;SDS011;57533;39.460;-0.372;2022-10-16T15:45:16;10.13;;;7.07;;
55573;SDS011;57533;39.460;-0.372;2022-10-16T15:47:42;13.70;;;5.20;;
55573;SDS011;57533;39.460;-0.372;2022-10-16T15:50:09;13.65;;;6.43;;
55573;SDS011;57533;39.460;-0.372;2022-10-16T15:52:34;8.57;;;6.43;;
55573;SDS011;57533;39.460;-0.372;2022-10-16T15:55:00;11.45;;;5.72;;
55573;SDS011;57533;39.460;-0.372;2022-10-16T15:57:27;11.38;;;5.78;;
55573;SDS011;57533;39.460;-0.372;2022-10-16T15:59:52;11.65;;;5.13;;
55573;SDS011;57533;39.460;-0.372;2022-10-16T16:02:18;12.23;;;4.90;;
55573;SDS011;57533;39.460;-0.372;2022-10-16T16:04:43;16.45;;;6.05;;
55573;SDS011;57533;39.460;-0.372;2022-10-16T16:07:08;11.15;;;4.60;;
55573;SDS011;57533;39.460;-0.372;2022-10-16T16:09:34;8.70;;;5.80;;
55573;SDS011;57533;39.460;-0.372;2022-10-16T16:11:59;10.20;;;5.60;;
55573;SDS011;57533;39.460;-0.372;2022-10-16T16:14:26;10.98;;;4.57;;
55573;SDS011;57533;39.460;-0.372;2022-10-16T16:16:52;12.25;;;5.38;;
55573;SDS011;57533;39.460;-0.372;2022-10-16T16:19:18;13.10;;;5.35;;
55573;SDS011;57533;39.460;-0.372;2022-10-16T16:21:45;11.20;;;6.03;;
55573;SDS011;57533;39.460;-0.372;2022-10-16T16:24:11;14.38;;;6.10;;
55573;SDS011;57533;39.460;-0.372;2022-10-16T16:26:36;8.40;;;5.28;;
55573;SDS011;57533;39.460;-0.372;2022-10-16T16:29:04;10.90;;;5.72;;
55573;SDS011;57533;39.460;-0.372;2022-10-16T16:31:30;9.07;;;5.18;;
55573;SDS011;57533;39.460;-0.372;2022-10-16T16:33:56;11.65;;;5.53;;
55573;SDS011;57533;39.460;-0.372;2022-10-16T16:36:22;11.55;;;6.13;;